Time;durP1;ratioP1;P1;durP2;ratioP2;P2;SDS_P1;SDS_P2;PMS_P1;PMS_P2;Temp;Humidity;BMP_temperature;BMP_pressure;BME280_temperature;BME280_humidity;BME280_pressure;Samples;Min_cycle;Max_cycle;Signal;HPM_P1;HPM_P2
2023/05/04 00:02:22;;;;;;;10.88;3.20;;;;;;;14.84;42.00;102278.50;5037988;27;96824;-77
2023/05/04 00:04:52;;;;;;;7.20;2.45;;;;;;;14.69;42.16;102282.47;5041182;27;98969;-78
2023/05/04 00:07:19;;;;;;;8.05;2.53;;;;;;;14.77;42.19;102284.91;5040054;27;98085;-77
2023/05/04 00:09:45;;;;;;;10.65;3.28;;;;;;;14.80;42.24;102287.50;5045056;27;96933;-79
2023/05/04 00:12:11;;;;;;;11.95;2.75;;;;;;;14.72;42.35;102276.19;5051053;27;96930;-79
2023/05/04 00:14:41;;;;;;;14.25;2.20;;;;;;;14.68;42.40;102279.84;5042619;27;99575;-78
2023/05/04 00:17:09;;;;;;;12.70;3.28;;;;;;;14.74;42.41;102277.03;5038476;27;97610;-79
2023/05/04 00:19:39;;;;;;;10.07;2.60;;;;;;;14.69;42.48;102274.50;5040878;27;96858;-79
2023/05/04 00:22:06;;;;;;;10.57;2.55;;;;;;;14.59;42.67;102275.66;5041625;27;96986;-79
2023/05/04 00:24:33;;;;;;;9.00;2.30;;;;;;;14.45;43.16;102272.50;5041342;27;98480;-76
2023/05/04 00:27:01;;;;;;;11.98;3.45;;;;;;;14.51;42.87;102272.34;5038037;27;101372;-76
2023/05/04 00:29:27;;;;;;;6.68;2.63;;;;;;;14.51;43.00;102266.13;5042419;27;96844;-77
2023/05/04 00:31:54;;;;;;;9.07;2.92;;;;;;;14.56;42.99;102265.13;5041265;27;96941;-77
2023/05/04 00:34:20;;;;;;;11.63;2.75;;;;;;;14.56;42.84;102273.09;5036337;27;99741;-77
2023/05/04 00:36:47;;;;;;;15.95;3.40;;;;;;;14.42;43.09;102267.28;5044942;27;99098;-77
2023/05/04 00:39:15;;;;;;;12.77;2.65;;;;;;;14.36;43.43;102270.09;5040542;27;97820;-78
2023/05/04 00:41:41;;;;;;;10.13;2.63;;;;;;;14.39;43.26;102269.13;5043519;27;97437;-75
2023/05/04 00:44:08;;;;;;;12.32;3.15;;;;;;;14.17;43.60;102260.84;5050310;27;99847;-76
2023/05/04 00:46:34;;;;;;;9.55;2.83;;;;;;;14.33;43.55;102272.81;5040076;27;99245;-76
2023/05/04 00:49:01;;;;;;;11.93;2.85;;;;;;;14.28;43.62;102269.41;5043256;27;96814;-77
2023/05/04 00:51:28;;;;;;;12.35;3.65;;;;;;;14.25;43.65;102270.34;5043471;27;97301;-76
2023/05/04 00:53:55;;;;;;;8.82;2.65;;;;;;;14.28;43.90;102269.41;5042673;27;98237;-76
2023/05/04 00:56:24;;;;;;;10.00;2.70;;;;;;;14.19;43.91;102269.63;5044571;27;98795;-76
2023/05/04 00:58:53;;;;;;;7.63;2.65;;;;;;;14.16;43.83;102264.41;5042751;27;96739;-75
2023/05/04 01:01:20;;;;;;;9.93;3.03;;;;;;;14.28;43.64;102264.09;5044141;27;97309;-76
2023/05/04 01:03:47;;;;;;;6.13;2.28;;;;;;;14.27;43.64;102257.91;5048767;27;99215;-76
2023/05/04 01:06:22;;;;;;;8.63;3.08;;;;;;;14.25;43.68;102265.03;5045702;27;96992;-75
2023/05/04 01:08:56;;;;;;;10.98;2.88;;;;;;;13.86;44.59;102260.75;5041810;27;96903;-76
2023/05/04 01:11:29;;;;;;;10.48;2.55;;;;;;;14.14;44.03;102261.78;5035946;27;97127;-76
2023/05/04 01:13:56;;;;;;;8.93;2.63;;;;;;;14.00;44.14;102249.75;5038619;27;98915;-77
2023/05/04 01:16:22;;;;;;;12.07;3.70;;;;;;;14.03;44.15;102255.03;5036392;27;99019;-76
2023/05/04 01:18:49;;;;;;;11.32;3.38;;;;;;;14.04;43.96;102248.78;5049010;27;98223;-76
2023/05/04 01:21:15;;;;;;;10.10;2.90;;;;;;;13.81;44.65;102250.25;5045669;27;97167;-77
2023/05/04 01:23:43;;;;;;;11.85;3.00;;;;;;;13.84;44.65;102255.50;5038059;27;99490;-76
2023/05/04 01:26:17;;;;;;;17.20;4.65;;;;;;;13.85;45.00;102259.00;5028123;27;98937;-77
2023/05/04 01:28:49;;;;;;;12.68;3.25;;;;;;;13.93;44.41;102257.91;5026457;27;101805;-77
2023/05/04 01:31:21;;;;;;;11.20;2.83;;;;;;;13.91;44.51;102259.72;5026994;27;96951;-77
2023/05/04 01:33:49;;;;;;;11.88;3.33;;;;;;;13.81;44.79;102252.91;5029670;27;98900;-76
2023/05/04 01:36:15;;;;;;;9.32;2.92;;;;;;;13.78;44.80;102254.78;5039656;27;99542;-77
2023/05/04 01:38:43;;;;;;;13.65;3.60;;;;;;;13.81;45.00;102255.56;5040931;27;97076;-75
2023/05/04 01:41:09;;;;;;;8.48;2.90;;;;;;;13.79;44.75;102254.72;5045936;27;97225;-77
2023/05/04 01:43:36;;;;;;;10.02;3.58;;;;;;;13.83;44.84;102253.75;5035190;27;99833;-76
2023/05/04 01:46:02;;;;;;;8.30;2.65;;;;;;;13.98;44.36;102246.31;5041743;27;99568;-77
2023/05/04 01:48:29;;;;;;;11.60;3.20;;;;;;;13.91;44.54;102243.78;5039279;27;96895;-78
2023/05/04 01:50:55;;;;;;;10.65;3.45;;;;;;;13.85;44.77;102249.25;5042031;27;97000;-78
2023/05/04 01:53:22;;;;;;;13.35;3.20;;;;;;;13.91;44.64;102248.25;5039226;27;98949;-78
2023/05/04 01:55:49;;;;;;;8.90;3.65;;;;;;;13.91;44.76;102246.44;5037462;27;98951;-78
2023/05/04 01:58:17;;;;;;;8.95;2.95;;;;;;;13.82;44.98;102251.13;5041678;27;96845;-77
2023/05/04 02:00:43;;;;;;;11.57;3.05;;;;;;;14.03;44.79;102239.06;5037851;27;97061;-76
2023/05/04 02:03:10;;;;;;;16.40;3.05;;;;;;;14.00;44.78;102247.09;5044633;27;98859;-77
2023/05/04 02:05:36;;;;;;;10.98;3.00;;;;;;;14.00;44.58;102244.44;5042461;27;98597;-77
2023/05/04 02:08:03;;;;;;;12.63;3.03;;;;;;;13.90;44.46;102243.84;5038252;27;97171;-77
2023/05/04 02:10:29;;;;;;;15.43;3.45;;;;;;;13.70;44.86;102244.34;5034892;27;98664;-78
2023/05/04 02:12:57;;;;;;;9.27;2.60;;;;;;;13.75;45.08;102247.75;5042773;27;98449;-77
2023/05/04 02:15:24;;;;;;;8.90;2.85;;;;;;;13.61;45.23;102244.53;5031580;27;99151;-76
2023/05/04 02:17:50;;;;;;;9.57;3.03;;;;;;;13.56;45.31;102241.13;5037682;27;96859;-76
2023/05/04 02:20:17;;;;;;;7.40;2.30;;;;;;;13.62;45.20;102235.66;5042681;27;97112;-76
2023/05/04 02:22:43;;;;;;;9.55;2.53;;;;;;;13.80;44.73;102237.88;5031570;27;99013;-75
2023/05/04 02:25:10;;;;;;;9.63;2.90;;;;;;;13.80;44.82;102240.53;5028948;27;101800;-78
2023/05/04 02:27:36;;;;;;;7.18;2.70;;;;;;;13.57;45.00;102242.88;5031129;27;97605;-77
2023/05/04 02:30:06;;;;;;;6.65;2.05;;;;;;;13.94;44.37;102237.50;5026026;27;96989;-78
2023/05/04 02:32:32;;;;;;;9.45;2.50;;;;;;;13.79;44.28;102238.78;5025472;27;98360;-76
2023/05/04 02:34:59;;;;;;;8.43;1.90;;;;;;;13.70;44.42;102244.34;5026863;27;99534;-76
2023/05/04 02:37:25;;;;;;;15.25;2.45;;;;;;;13.72;44.38;102245.16;5039048;27;96886;-76
2023/05/04 02:39:52;;;;;;;13.45;2.85;;;;;;;13.76;44.27;102246.84;5031883;27;97835;-76
2023/05/04 02:42:18;;;;;;;12.38;2.55;;;;;;;13.55;45.04;102247.34;5033995;27;99298;-77
2023/05/04 02:44:45;;;;;;;13.55;2.97;;;;;;;13.69;44.42;102247.03;5034878;27;99105;-76
2023/05/04 02:47:13;;;;;;;16.58;3.60;;;;;;;13.79;44.39;102238.78;5033043;27;97231;-77
2023/05/04 02:49:39;;;;;;;13.80;3.08;;;;;;;13.73;44.25;102238.94;5032397;27;98656;-77
2023/05/04 02:52:06;;;;;;;15.60;2.95;;;;;;;13.69;44.23;102239.94;5031632;27;99221;-76
2023/05/04 02:54:32;;;;;;;13.02;3.35;;;;;;;13.57;44.62;102242.88;5031681;27;98239;-76
2023/05/04 02:56:58;;;;;;;8.00;2.53;;;;;;;13.58;44.59;102244.63;5037196;27;97390;-76
2023/05/04 02:59:25;;;;;;;12.43;3.22;;;;;;;13.56;44.54;102242.00;5029904;27;97458;-77
2023/05/04 03:01:51;;;;;;;12.95;2.53;;;;;;;13.72;44.36;102239.84;5030107;27;99554;-78
2023/05/04 03:04:19;;;;;;;10.27;2.90;;;;;;;13.63;44.71;102232.13;5031875;27;99014;-77
2023/05/04 03:06:46;;;;;;;11.95;2.90;;;;;;;13.45;44.79;102238.75;5031002;27;97758;-77
2023/05/04 03:09:12;;;;;;;11.55;2.92;;;;;;;13.32;44.92;102237.28;5029815;27;97004;-77
2023/05/04 03:11:39;;;;;;;10.57;2.95;;;;;;;13.55;44.67;102236.72;5029265;27;99780;-78
2023/05/04 03:14:06;;;;;;;7.78;2.60;;;;;;;13.41;44.86;102228.22;5031640;27;100604;-77
2023/05/04 03:16:33;;;;;;;16.13;3.08;;;;;;;13.54;44.66;102232.31;5030546;27;98643;-77
2023/05/04 03:18:59;;;;;;;8.60;2.70;;;;;;;13.59;44.54;102227.78;5029379;27;98501;-77
2023/05/04 03:21:27;;;;;;;11.35;2.67;;;;;;;13.58;44.45;102231.34;5030515;27;98920;-77
2023/05/04 03:23:54;;;;;;;13.45;2.55;;;;;;;13.64;44.53;102225.03;5030737;27;99608;-78
2023/05/04 03:26:21;;;;;;;14.13;3.35;;;;;;;13.71;44.30;102231.94;5030968;27;97906;-78
2023/05/04 03:28:47;;;;;;;16.30;2.88;;;;;;;13.42;45.24;102229.97;5030711;27;98639;-77
2023/05/04 03:31:14;;;;;;;16.55;2.60;;;;;;;13.41;44.91;102223.78;5035318;27;99042;-78
2023/05/04 03:33:40;;;;;;;11.85;2.92;;;;;;;13.35;45.47;102226.59;5031133;27;98975;-78
2023/05/04 03:36:07;;;;;;;10.60;3.42;;;;;;;13.32;45.92;102225.81;5030810;27;98542;-77
2023/05/04 03:38:34;;;;;;;14.48;3.25;;;;;;;13.38;45.54;102223.00;5030144;27;99063;-77
2023/05/04 03:41:01;;;;;;;10.63;3.38;;;;;;;13.29;45.93;102229.38;5028063;27;99107;-76
2023/05/04 03:43:27;;;;;;;13.25;2.92;;;;;;;13.20;46.21;102229.59;5030992;27;101504;-79
2023/05/04 03:45:54;;;;;;;12.20;2.72;;;;;;;12.84;46.98;102220.66;5041314;27;97955;-77
2023/05/04 03:48:21;;;;;;;11.57;3.05;;;;;;;12.88;47.12;102219.66;5027946;27;98680;-78
2023/05/04 03:50:47;;;;;;;10.20;2.72;;;;;;;12.87;47.03;102214.38;5028066;27;98926;-77
2023/05/04 03:53:13;;;;;;;14.20;2.92;;;;;;;12.64;47.69;102215.75;5028604;27;98992;-77
2023/05/04 03:55:41;;;;;;;15.73;3.00;;;;;;;12.72;47.39;102218.25;5030222;27;98534;-77
2023/05/04 03:58:08;;;;;;;10.32;2.67;;;;;;;12.84;46.97;102217.13;5027889;27;98499;-77
2023/05/04 04:00:34;;;;;;;12.95;3.15;;;;;;;13.02;46.80;102220.25;5029155;27;98463;-77
2023/05/04 04:03:02;;;;;;;14.07;3.28;;;;;;;13.10;46.17;102215.63;5030314;27;99830;-77
2023/05/04 04:05:28;;;;;;;12.63;3.85;;;;;;;12.83;46.67;102215.38;5032535;27;97793;-77
2023/05/04 04:07:55;;;;;;;13.27;2.92;;;;;;;13.18;46.23;102226.13;5044493;27;96943;-79
2023/05/04 04:10:21;;;;;;;13.32;3.47;;;;;;;13.29;45.75;102225.84;5046147;27;99265;-78
2023/05/04 04:12:49;;;;;;;11.98;2.97;;;;;;;13.33;45.70;102214.25;5034666;27;98226;-77
2023/05/04 04:15:16;;;;;;;10.13;2.95;;;;;;;13.41;45.23;102222.91;5041495;27;96909;-79
2023/05/04 04:17:42;;;;;;;10.90;2.83;;;;;;;13.50;45.27;102214.72;5039343;27;97609;-79
2023/05/04 04:20:10;;;;;;;9.60;2.42;;;;;;;13.21;45.47;102219.84;5051696;27;97679;-79
2023/05/04 04:22:36;;;;;;;11.50;3.10;;;;;;;13.61;44.62;102215.34;5035821;27;99359;-79
2023/05/04 04:25:05;;;;;;;14.00;2.97;;;;;;;13.84;44.30;102220.06;5046376;27;96968;-79
2023/05/04 04:27:32;;;;;;;10.20;3.08;;;;;;;14.02;43.58;102210.75;5049152;27;98358;-76
2023/05/04 04:29:59;;;;;;;15.20;3.97;;;;;;;13.91;43.41;102217.19;5050580;27;98887;-77
2023/05/04 04:32:26;;;;;;;8.45;2.90;;;;;;;13.99;43.57;102219.66;5039771;27;99206;-78
2023/05/04 04:34:52;;;;;;;9.38;2.90;;;;;;;13.98;43.42;102215.25;5038558;27;96879;-77
2023/05/04 04:37:19;;;;;;;8.60;3.35;;;;;;;14.16;43.02;102214.78;5037291;27;98459;-76
2023/05/04 04:39:45;;;;;;;13.77;3.58;;;;;;;14.20;42.92;102218.22;5031236;27;100488;-77
2023/05/04 04:42:12;;;;;;;16.08;3.35;;;;;;;14.19;42.98;102212.03;5029589;27;100628;-77
2023/05/04 04:44:39;;;;;;;9.50;2.80;;;;;;;14.41;42.26;102216.78;5030459;27;98908;-77
2023/05/04 04:47:08;;;;;;;10.30;3.83;;;;;;;14.24;42.30;102214.59;5030862;27;98727;-77
2023/05/04 04:49:35;;;;;;;13.32;3.35;;;;;;;14.33;42.19;102204.53;5028771;27;99015;-78
2023/05/04 04:52:01;;;;;;;9.05;2.92;;;;;;;14.09;42.74;102215.00;5028347;27;101072;-77
2023/05/04 04:54:28;;;;;;;13.77;3.15;;;;;;;14.32;42.59;102223.19;5027290;27;98477;-77
2023/05/04 04:56:54;;;;;;;18.90;3.88;;;;;;;14.39;42.04;102224.81;5029219;27;97944;-76
2023/05/04 04:59:23;;;;;;;11.25;3.17;;;;;;;14.59;41.50;102226.91;5031300;27;99700;-77
2023/05/04 05:01:49;;;;;;;13.05;2.97;;;;;;;14.66;41.38;102220.50;5034364;27;98814;-77
2023/05/04 05:04:17;;;;;;;14.73;2.92;;;;;;;14.32;41.88;102217.88;5036121;27;98653;-77
2023/05/04 05:06:44;;;;;;;13.48;2.70;;;;;;;14.64;41.43;102212.53;5034367;27;97278;-80
2023/05/04 05:09:13;;;;;;;9.35;2.97;;;;;;;14.80;41.31;102212.09;5028000;27;99424;-79
2023/05/04 05:11:39;;;;;;;15.93;3.05;;;;;;;14.77;41.34;102214.88;5027111;27;98706;-79
2023/05/04 05:14:06;;;;;;;15.00;3.42;;;;;;;14.88;41.33;102210.09;5028279;27;97742;-78
2023/05/04 05:16:33;;;;;;;12.20;3.13;;;;;;;14.89;41.20;102210.06;5029805;27;98369;-78
2023/05/04 05:19:00;;;;;;;13.65;3.60;;;;;;;15.02;40.71;102207.88;5032134;27;100245;-76
2023/05/04 05:21:27;;;;;;;12.65;3.25;;;;;;;14.88;40.90;102204.78;5032445;27;99249;-78
2023/05/04 05:23:54;;;;;;;10.73;3.22;;;;;;;15.28;40.33;102202.63;5030430;27;97846;-77
2023/05/04 05:26:20;;;;;;;9.73;2.97;;;;;;;15.48;40.20;102201.97;5027426;27;99013;-77
2023/05/04 05:28:47;;;;;;;8.70;2.80;;;;;;;15.23;40.32;102206.34;5030287;27;99142;-80
2023/05/04 05:31:14;;;;;;;11.50;3.20;;;;;;;15.94;39.06;102211.97;5039012;27;98937;-80
2023/05/04 05:33:43;;;;;;;9.85;3.63;;;;;;;16.53;37.63;102207.19;5036668;27;97166;-79
2023/05/04 05:36:10;;;;;;;12.50;3.08;;;;;;;16.44;37.10;102204.84;5030654;27;96852;-80
2023/05/04 05:38:37;;;;;;;10.00;3.33;;;;;;;16.47;36.74;102202.06;5027189;27;98781;-80
2023/05/04 05:41:04;;;;;;;12.30;4.03;;;;;;;16.17;37.39;102205.81;5032485;27;98240;-80
2023/05/04 05:43:32;;;;;;;12.38;3.53;;;;;;;16.02;38.03;102212.56;5032614;27;97059;-81
2023/05/04 05:45:58;;;;;;;16.60;3.80;;;;;;;16.31;37.59;102220.41;5031987;27;97176;-77
2023/05/04 05:48:25;;;;;;;12.52;3.88;;;;;;;16.19;37.73;102214.66;5028069;27;99184;-76
2023/05/04 05:50:51;;;;;;;12.43;4.25;;;;;;;16.30;37.50;102200.00;5030809;27;98310;-76
2023/05/04 05:53:18;;;;;;;9.73;3.50;;;;;;;16.21;37.50;102196.81;5029760;27;98655;-75
2023/05/04 05:55:47;;;;;;;27.73;4.95;;;;;;;16.39;37.29;102198.81;5030998;27;98606;-77
2023/05/04 05:58:13;;;;;;;15.80;3.67;;;;;;;15.97;38.05;102203.88;5029683;27;97965;-78
2023/05/04 06:00:40;;;;;;;14.65;3.97;;;;;;;16.59;37.11;102195.41;5033365;27;102942;-78
2023/05/04 06:03:06;;;;;;;18.75;4.20;;;;;;;16.69;36.72;102207.47;5039257;27;96829;-78
2023/05/04 06:05:34;;;;;;;9.38;3.67;;;;;;;16.65;36.68;102205.88;5043737;27;96938;-79
2023/05/04 06:08:00;;;;;;;11.77;3.58;;;;;;;16.68;36.43;102209.28;5041477;27;98961;-79
2023/05/04 06:10:27;;;;;;;10.68;3.53;;;;;;;17.00;36.30;102204.53;5038398;27;99059;-78
2023/05/04 06:12:55;;;;;;;13.60;4.03;;;;;;;16.97;36.22;102207.31;5045598;27;96810;-77
2023/05/04 06:15:21;;;;;;;16.92;3.85;;;;;;;17.16;35.82;102199.44;5039697;27;97136;-77
2023/05/04 06:17:48;;;;;;;15.82;4.10;;;;;;;17.22;35.48;102200.06;5034923;27;98988;-79
2023/05/04 06:20:15;;;;;;;20.48;4.72;;;;;;;17.30;35.33;102202.41;5047496;27;98797;-79
2023/05/04 06:22:41;;;;;;;17.15;4.28;;;;;;;17.12;35.49;102210.25;5042608;27;97358;-78
2023/05/04 06:25:08;;;;;;;11.48;3.90;;;;;;;17.36;35.51;102211.06;5043529;27;97006;-77
2023/05/04 06:27:35;;;;;;;15.27;3.47;;;;;;;17.64;34.36;102207.28;5040113;27;99290;-78
2023/05/04 06:30:02;;;;;;;10.95;3.50;;;;;;;17.71;34.37;102206.97;5047562;27;100350;-78
2023/05/04 06:32:29;;;;;;;17.85;3.72;;;;;;;17.69;34.65;102213.31;5045134;27;97157;-78
2023/05/04 06:34:56;;;;;;;17.27;3.80;;;;;;;18.17;33.65;102210.34;5058036;27;96859;-76
2023/05/04 06:37:22;;;;;;;17.13;3.67;;;;;;;18.49;32.97;102209.75;5058417;27;98283;-79
2023/05/04 06:39:49;;;;;;;11.30;3.67;;;;;;;18.68;32.65;102197.31;5043564;27;98145;-79
2023/05/04 06:42:18;;;;;;;11.63;3.58;;;;;;;19.01;32.33;102207.38;5053460;27;96974;-80
2023/05/04 06:44:44;;;;;;;10.10;3.90;;;;;;;19.15;31.87;102204.03;5050788;27;97007;-79
2023/05/04 06:47:12;;;;;;;8.75;3.30;;;;;;;18.88;32.11;102214.25;5048068;27;98934;-80
2023/05/04 06:49:38;;;;;;;13.85;3.50;;;;;;;19.11;32.09;102208.66;5045783;27;98891;-80
2023/05/04 06:52:05;;;;;;;17.23;3.60;;;;;;;19.06;32.06;102208.00;5041050;27;96871;-79
2023/05/04 06:54:31;;;;;;;17.33;3.72;;;;;;;18.93;32.23;102204.19;5040813;27;97478;-81
2023/05/04 06:56:58;;;;;;;12.48;3.80;;;;;;;19.33;31.18;102209.38;5036038;27;97798;-79
2023/05/04 06:59:24;;;;;;;13.10;3.58;;;;;;;19.50;31.41;102200.50;5039996;27;98894;-81
2023/05/04 07:01:50;;;;;;;19.67;4.10;;;;;;;19.20;31.56;102202.88;5042234;27;97236;-79
2023/05/04 07:04:21;;;;;;;15.10;3.50;;;;;;;19.43;31.37;102207.09;5050047;27;97041;-80
2023/05/04 07:06:48;;;;;;;17.15;3.63;;;;;;;19.46;30.88;102210.53;5055164;27;97198;-79
2023/05/04 07:09:14;;;;;;;11.88;4.28;;;;;;;19.82;30.25;102206.97;5042209;27;98885;-79
2023/05/04 07:11:41;;;;;;;9.68;3.28;;;;;;;20.12;30.18;102204.50;5046114;27;98034;-80
2023/05/04 07:14:07;;;;;;;15.07;3.60;;;;;;;20.63;29.20;102196.38;5043760;27;97234;-79
2023/05/04 07:16:35;;;;;;;19.92;7.90;;;;;;;20.78;29.46;102204.53;5046036;27;99946;-79
2023/05/04 07:19:03;;;;;;;14.32;3.92;;;;;;;21.15;28.79;102203.34;5042208;27;97073;-79
2023/05/04 07:21:32;;;;;;;14.60;3.80;;;;;;;21.21;28.10;102194.94;5045327;27;97614;-81
2023/05/04 07:23:59;;;;;;;10.13;3.72;;;;;;;20.64;28.87;102189.19;5033035;27;97968;-81
2023/05/04 07:26:25;;;;;;;14.82;3.63;;;;;;;21.23;28.08;102193.06;5045500;27;99694;-80
2023/05/04 07:28:51;;;;;;;14.30;3.72;;;;;;;20.96;29.02;102198.13;5053631;27;98106;-80
2023/05/04 07:31:18;;;;;;;10.77;3.42;;;;;;;21.11;28.44;102193.72;5042263;27;96819;-81
2023/05/04 07:33:44;;;;;;;14.70;3.50;;;;;;;21.20;28.30;102188.72;5043939;27;97417;-80
2023/05/04 07:36:10;;;;;;;17.75;3.80;;;;;;;21.02;28.86;102190.59;5049179;27;99029;-79
2023/05/04 07:38:38;;;;;;;13.02;3.60;;;;;;;20.99;28.22;102185.41;5050384;27;97978;-79
2023/05/04 07:41:06;;;;;;;16.25;4.13;;;;;;;21.39;27.79;102178.66;5047283;27;97216;-80
2023/05/04 07:43:32;;;;;;;12.75;3.72;;;;;;;21.46;27.92;102181.84;5045276;27;96821;-79
2023/05/04 07:45:58;;;;;;;10.73;3.72;;;;;;;21.46;27.76;102180.00;5039916;27;99421;-80
2023/05/04 07:48:25;;;;;;;12.13;2.92;;;;;;;21.54;27.60;102174.19;5041923;27;97687;-80
2023/05/04 07:50:51;;;;;;;15.50;3.42;;;;;;;21.08;28.04;102182.19;5042324;27;98995;-78
2023/05/04 07:53:19;;;;;;;11.00;3.00;;;;;;;20.98;27.53;102186.34;5041802;27;97005;-80
2023/05/04 07:55:47;;;;;;;8.07;3.45;;;;;;;20.79;27.52;102177.59;5037960;27;97679;-79
2023/05/04 07:58:14;;;;;;;14.02;3.30;;;;;;;21.53;26.96;102175.13;5044441;27;98743;-79
2023/05/04 08:00:40;;;;;;;11.52;3.22;;;;;;;21.50;26.76;102172.63;5046299;27;97691;-80
2023/05/04 08:03:07;;;;;;;9.27;2.80;;;;;;;21.66;26.28;102168.06;5036008;27;97191;-78
2023/05/04 08:05:39;;;;;;;6.32;2.65;;;;;;;21.94;26.15;102161.03;5050707;27;99182;-75
2023/05/04 08:08:05;;;;;;;13.45;2.80;;;;;;;21.93;25.96;102170.06;5040307;27;98962;-75
2023/05/04 08:10:35;;;;;;;11.98;3.05;;;;;;;22.14;25.33;102169.66;5036277;27;98311;-75
2023/05/04 08:13:03;;;;;;;7.28;2.65;;;;;;;21.97;25.83;102159.06;5038438;27;96803;-76
2023/05/04 08:15:30;;;;;;;10.63;3.00;;;;;;;22.44;25.51;102161.53;5036375;27;99273;-75
2023/05/04 08:17:56;;;;;;;10.20;2.78;;;;;;;21.97;25.94;102166.28;5037164;27;98950;-75
2023/05/04 08:20:23;;;;;;;8.57;3.10;;;;;;;22.51;25.60;102162.84;5038957;27;97409;-75
2023/05/04 08:22:49;;;;;;;12.05;3.10;;;;;;;22.25;25.57;102153.69;5043795;27;97009;-76
2023/05/04 08:25:16;;;;;;;9.50;2.50;;;;;;;22.18;25.84;102155.06;5043457;27;99066;-74
2023/05/04 08:27:43;;;;;;;9.13;2.95;;;;;;;21.96;26.18;102160.03;5043730;27;99694;-76
2023/05/04 08:30:11;;;;;;;14.82;3.63;;;;;;;21.50;26.31;102158.31;5042112;27;97629;-75
2023/05/04 08:32:38;;;;;;;8.30;2.83;;;;;;;21.40;26.19;102168.72;5040615;27;97395;-75
2023/05/04 08:35:06;;;;;;;8.20;2.75;;;;;;;21.85;25.86;102155.28;5036880;27;99104;-75
2023/05/04 08:37:32;;;;;;;15.75;2.88;;;;;;;22.05;25.98;102156.78;5033838;27;98767;-75
2023/05/04 08:39:59;;;;;;;10.90;3.28;;;;;;;22.11;25.50;102155.53;5036056;27;96661;-75
2023/05/04 08:42:29;;;;;;;11.57;3.25;;;;;;;21.69;25.62;102157.13;5041499;27;97237;-75
2023/05/04 08:44:56;;;;;;;7.05;2.38;;;;;;;21.80;25.50;102151.09;5039182;27;99103;-75
2023/05/04 08:47:24;;;;;;;7.07;2.70;;;;;;;22.00;25.55;102141.84;5039709;27;98856;-75
2023/05/04 08:49:52;;;;;;;9.52;2.53;;;;;;;21.91;25.44;102140.56;5033795;27;97101;-74
2023/05/04 08:52:19;;;;;;;9.25;2.90;;;;;;;22.22;25.15;102134.19;5037316;27;97038;-74
2023/05/04 08:54:46;;;;;;;10.98;2.55;;;;;;;22.59;24.98;102133.59;5032849;27;99161;-76
2023/05/04 08:57:14;;;;;;;7.32;2.38;;;;;;;22.84;23.85;102137.44;5039088;27;98182;-75
2023/05/04 08:59:42;;;;;;;8.57;2.50;;;;;;;22.61;23.94;102131.66;5036953;27;96643;-75
2023/05/04 09:02:11;;;;;;;9.65;2.38;;;;;;;22.76;23.46;102123.59;5032980;27;97027;-76
2023/05/04 09:04:39;;;;;;;6.07;1.88;;;;;;;22.63;23.90;102132.44;5039739;27;99130;-76
2023/05/04 09:07:05;;;;;;;6.50;2.50;;;;;;;22.85;23.97;102128.38;5041789;27;99642;-74
2023/05/04 09:09:32;;;;;;;6.47;2.20;;;;;;;22.86;23.88;102127.41;5038910;27;97178;-75
2023/05/04 09:11:58;;;;;;;8.07;2.90;;;;;;;22.62;23.82;102135.22;5033853;27;96903;-74
2023/05/04 09:14:32;;;;;;;6.78;2.83;;;;;;;22.68;23.96;102137.53;5035576;27;99252;-75
2023/05/04 09:17:02;;;;;;;6.15;2.40;;;;;;;23.01;23.94;102135.38;5033869;27;102793;-75
2023/05/04 09:19:32;;;;;;;5.82;2.30;;;;;;;22.65;23.94;102133.19;5035603;27;97533;-74
2023/05/04 09:22:00;;;;;;;8.30;2.78;;;;;;;22.47;24.07;102128.97;5040177;27;96834;-75
2023/05/04 09:24:27;;;;;;;6.30;2.10;;;;;;;22.21;24.15;102124.38;5043189;27;98927;-74
2023/05/04 09:26:53;;;;;;;12.20;2.80;;;;;;;22.31;24.35;102119.28;5033909;27;99468;-76
2023/05/04 09:29:21;;;;;;;8.43;2.20;;;;;;;22.77;24.38;102122.63;5032000;27;97449;-76
2023/05/04 09:31:48;;;;;;;4.78;1.98;;;;;;;22.88;23.02;102120.97;5037397;27;96939;-75
2023/05/04 09:34:15;;;;;;;4.38;1.83;;;;;;;22.52;23.36;102120.59;5034259;27;99341;-76
2023/05/04 09:36:42;;;;;;;14.35;2.13;;;;;;;22.51;23.49;102119.72;5031342;27;98970;-76
2023/05/04 09:39:10;;;;;;;9.77;2.28;;;;;;;22.83;22.99;102119.53;5035126;27;97739;-75
2023/05/04 09:41:37;;;;;;;13.55;3.10;;;;;;;22.93;22.63;102118.81;5036182;27;96887;-76
2023/05/04 09:44:03;;;;;;;11.10;2.85;;;;;;;23.08;22.47;102114.25;5037542;27;97496;-77
2023/05/04 09:46:30;;;;;;;7.13;1.88;;;;;;;23.52;22.04;102110.44;5035554;27;99366;-75
2023/05/04 09:48:57;;;;;;;5.93;1.92;;;;;;;23.33;22.49;102111.66;5038823;27;97353;-75
2023/05/04 09:51:26;;;;;;;11.48;1.88;;;;;;;23.00;22.51;102103.97;5038547;27;96915;-75
2023/05/04 09:53:52;;;;;;;22.17;3.45;;;;;;;22.59;23.28;102112.03;5034893;27;99354;-75
2023/05/04 09:56:30;;;;;;;5.28;2.08;;;;;;;22.34;23.39;102105.63;5039290;27;100840;-75
2023/05/04 09:58:57;;;;;;;4.03;1.90;;;;;;;22.60;23.14;102104.81;5038509;27;97122;-75
2023/05/04 10:01:27;;;;;;;10.95;2.63;;;;;;;22.66;22.62;102099.03;5037999;27;97135;-75
2023/05/04 10:03:53;;;;;;;9.35;2.20;;;;;;;23.01;22.11;102094.94;5039087;27;99028;-75
2023/05/04 10:06:20;;;;;;;3.47;1.80;;;;;;;23.18;21.40;102087.53;5042318;27;98917;-75
2023/05/04 10:08:48;;;;;;;6.43;1.67;;;;;;;23.24;21.66;102085.28;5034751;27;97312;-74
2023/05/04 10:11:17;;;;;;;6.85;1.90;;;;;;;23.27;21.58;102095.03;5042272;27;97671;-75
2023/05/04 10:13:45;;;;;;;4.75;1.92;;;;;;;22.94;21.31;102090.91;5037461;27;98595;-74
2023/05/04 10:16:23;;;;;;;15.18;2.25;;;;;;;23.16;21.08;102082.28;5032658;27;101424;-75
2023/05/04 10:19:10;;;;;;;6.68;1.80;;;;;;;23.24;21.66;102069.09;5039856;27;96766;-75
2023/05/04 10:21:48;;;;;;;5.90;2.08;;;;;;;23.19;20.83;102067.69;5040821;27;96910;-76
2023/05/04 10:24:34;;;;;;;12.38;2.13;;;;;;;22.81;22.27;102068.44;5040343;27;98943;-75
2023/05/04 10:27:07;;;;;;;5.93;2.00;;;;;;;22.64;22.13;102060.56;5045468;27;98884;-75
2023/05/04 10:29:36;;;;;;;8.38;2.05;;;;;;;22.72;22.17;102054.66;5036305;27;98042;-75
2023/05/04 10:32:03;;;;;;;6.70;1.80;;;;;;;22.75;22.36;102049.13;5045139;27;97198;-75
2023/05/04 10:34:31;;;;;;;6.28;1.85;;;;;;;22.62;22.60;102057.09;5036457;27;99079;-75
2023/05/04 10:36:58;;;;;;;12.57;2.03;;;;;;;22.79;22.33;102054.19;5037627;27;101456;-75
2023/05/04 10:39:26;;;;;;;10.45;2.42;;;;;;;22.84;21.77;102040.44;5037007;27;98116;-74
2023/05/04 10:42:16;;;;;;;8.73;1.88;;;;;;;23.10;22.13;102044.94;5037477;27;96775;-75
2023/05/04 10:44:52;;;;;;;4.47;1.75;;;;;;;22.99;21.36;102034.00;5033615;27;99322;-76
2023/05/04 10:47:28;;;;;;;4.00;2.20;;;;;;;23.09;21.31;102028.88;5035874;27;99251;-75
2023/05/04 10:50:00;;;;;;;;;;;;;;;22.85;21.13;102031.34;5039688;27;97254;-76
2023/05/04 10:52:27;;;;;;;9.95;2.65;;;;;;;22.89;21.19;102032.91;5038060;27;96934;-75
2023/05/04 10:54:59;;;;;;;5.90;2.13;;;;;;;22.80;21.36;102022.72;5036367;27;100281;-74
2023/05/04 10:57:27;;;;;;;5.78;2.10;;;;;;;23.09;21.27;102021.63;5044585;27;99570;-74
2023/05/04 10:59:58;;;;;;;6.57;2.08;;;;;;;22.98;21.36;102018.78;5041006;27;97964;-75
2023/05/04 11:02:26;;;;;;;4.22;1.65;;;;;;;23.01;21.31;102007.81;5038647;27;96797;-74
2023/05/04 11:05:02;;;;;;;6.00;2.30;;;;;;;23.15;21.73;102012.25;5044642;27;99152;-76
2023/05/04 11:07:37;;;;;;;6.70;2.10;;;;;;;23.10;21.91;101999.09;5038959;27;102206;-75
2023/05/04 11:10:04;;;;;;;6.43;2.67;;;;;;;22.90;21.88;102008.53;5042244;27;97877;-75
2023/05/04 11:12:31;;;;;;;6.65;1.95;;;;;;;22.91;21.97;102015.63;5038464;27;97410;-75
2023/05/04 11:15:07;;;;;;;7.43;2.03;;;;;;;22.73;20.58;102005.22;5033744;27;99407;-75
2023/05/04 11:17:33;;;;;;;2.83;1.80;;;;;;;22.87;20.61;101995.25;5040488;27;100015;-75
2023/05/04 11:20:00;;;;;;;5.05;1.73;;;;;;;22.87;20.72;101997.09;5042117;27;97259;-75
2023/05/04 11:22:27;;;;;;;7.65;1.42;;;;;;;23.12;19.92;101996.28;5037440;27;97812;-74